Lewiston, Idaho
Current Conditions -  °F | °C
As of 11:56 PM on Monday 20 Oct 2014 (Local Time) from KLWS Reporting Station
Overcast Overcast  
Wind Chill: 56°   Ceiling: 6500
Heat Index: 56°   Visibility: 10mi
Dew Point: 44°   Wind: 6mph
Humidity: 64%   Direction: 30°NNE
Pressure: 29.85"   Gusts: NA
Location:  46.42°N, 117.01°W
Report Text: KLWS 210656Z AUTO 03005KT 10SM OVC065 13/07 A2985 RMK AO2 SLP104 T01330067
Loading
Personal Weather Stations






























Interactive Weather Map New forecast layout! Learn more

10-Day Weather Forecast

Advertisements
Track Severe Weather on mobile